Time;durP1;ratioP1;P1;durP2;ratioP2;P2;SDS_P1;SDS_P2;PMS_P1;PMS_P2;Temp;Humidity;BMP_temperature;BMP_pressure;BME280_temperature;BME280_humidity;BME280_pressure;Samples;Min_cycle;Max_cycle;Signal;HPM_P1;HPM_P2
2023/10/25 00:01:33;;;;;;;12.77;4.97;;;;;;;7.02;100.00;100198.00;6215273;23;20000;-79
2023/10/25 00:03:59;;;;;;;10.05;4.90;;;;;;;6.97;100.00;100185.41;6214995;23;20001;-80
2023/10/25 00:06:24;;;;;;;11.00;5.03;;;;;;;6.95;100.00;100186.44;6214820;23;20011;-81
2023/10/25 00:08:49;;;;;;;11.25;4.95;;;;;;;6.79;100.00;100169.38;6215126;23;20080;-82
2023/10/25 00:11:16;;;;;;;11.48;4.63;;;;;;;6.78;100.00;100166.88;6212519;23;20015;-82
2023/10/25 00:13:41;;;;;;;11.77;4.93;;;;;;;6.63;100.00;100142.94;6215098;23;20044;-82
2023/10/25 00:16:06;;;;;;;10.10;5.05;;;;;;;6.88;100.00;100183.38;6215028;23;20005;-80
2023/10/25 00:18:31;;;;;;;10.68;5.38;;;;;;;6.88;100.00;100180.81;6215464;23;20012;-82
2023/10/25 00:20:57;;;;;;;11.50;5.80;;;;;;;6.82;100.00;100155.53;6215083;23;20107;-78
2023/10/25 00:23:22;;;;;;;13.75;5.22;;;;;;;6.87;100.00;100174.03;6214580;23;20553;-78
2023/10/25 00:25:48;;;;;;;11.65;5.93;;;;;;;6.87;100.00;100171.47;6214692;23;20005;-79
2023/10/25 00:28:14;;;;;;;10.90;5.65;;;;;;;6.86;100.00;100164.69;6215384;23;20078;-76
2023/10/25 00:30:40;;;;;;;18.17;6.15;;;;;;;6.67;100.00;100141.00;6214805;23;20008;-80
2023/10/25 00:33:05;;;;;;;16.55;6.88;;;;;;;6.84;100.00;100169.09;6214904;23;20011;-81
2023/10/25 00:35:30;;;;;;;14.88;6.78;;;;;;;6.84;100.00;100167.34;6214807;23;20058;-78
2023/10/25 00:37:56;;;;;;;13.48;7.20;;;;;;;6.79;100.00;100173.69;6214579;23;20011;-78
2023/10/25 00:40:21;;;;;;;15.45;7.53;;;;;;;6.46;100.00;100122.53;6214548;23;20016;-81
2023/10/25 00:42:46;;;;;;;10.82;6.93;;;;;;;6.69;100.00;100168.25;6214740;23;20080;-81
2023/10/25 00:45:13;;;;;;;15.55;7.97;;;;;;;6.76;100.00;100184.09;6214640;23;20080;-81
2023/10/25 00:47:41;;;;;;;15.65;8.13;;;;;;;6.76;100.00;100184.91;6214634;23;20103;-78
2023/10/25 00:50:09;;;;;;;14.93;7.63;;;;;;;6.72;100.00;100178.31;6187349;23;20334;-78
2023/10/25 00:52:35;;;;;;;14.77;8.32;;;;;;;6.68;100.00;100184.53;6187360;23;20015;-80
2023/10/25 00:55:01;;;;;;;17.08;8.27;;;;;;;6.66;100.00;100185.53;6214909;23;20454;-80
2023/10/25 00:57:27;;;;;;;18.08;8.10;;;;;;;6.67;100.00;100184.63;6214594;23;20431;-82
2023/10/25 00:59:52;;;;;;;15.02;8.15;;;;;;;6.64;100.00;100169.41;6213198;23;20005;-81
2023/10/25 01:02:18;;;;;;;18.05;9.15;;;;;;;6.68;100.00;100170.88;6214649;23;20032;-80
2023/10/25 01:04:43;;;;;;;12.73;7.80;;;;;;;6.68;100.00;100165.75;6215045;23;20028;-82
2023/10/25 01:07:09;;;;;;;12.70;8.00;;;;;;;6.66;100.00;100168.41;6215079;23;20007;-82
2023/10/25 01:09:34;;;;;;;16.17;8.02;;;;;;;6.66;100.00;100167.56;6214911;23;20091;-82
2023/10/25 01:11:59;;;;;;;19.75;8.63;;;;;;;6.69;100.00;100162.28;6214540;23;20036;-79
2023/10/25 01:14:31;;;;;;;14.02;7.40;;;;;;;6.67;100.00;100154.66;6215751;23;20004;-80
2023/10/25 01:16:56;;;;;;;13.90;7.95;;;;;;;6.68;100.00;100156.31;6216627;23;20031;-80
2023/10/25 01:19:22;;;;;;;12.35;7.53;;;;;;;6.55;100.00;100138.22;6216685;23;20004;-81
2023/10/25 01:21:47;;;;;;;15.75;7.28;;;;;;;6.69;100.00;100152.03;6216986;23;20066;-78
2023/10/25 01:24:12;;;;;;;15.60;7.18;;;;;;;6.61;100.00;100143.03;6216434;23;20327;-78
2023/10/25 01:26:38;;;;;;;14.80;7.15;;;;;;;6.68;100.00;100147.78;6216337;23;20011;-78
2023/10/25 01:29:04;;;;;;;11.35;6.72;;;;;;;6.62;100.00;100138.72;6216583;23;20001;-80
2023/10/25 01:31:30;;;;;;;12.40;6.68;;;;;;;6.66;100.00;100124.78;6216684;23;20395;-81
2023/10/25 01:33:55;;;;;;;13.23;6.78;;;;;;;6.74;100.00;100134.59;6216541;23;20016;-77
2023/10/25 01:36:20;;;;;;;13.73;6.15;;;;;;;6.60;100.00;100113.16;6214375;23;20027;-82
2023/10/25 01:38:46;;;;;;;11.95;6.20;;;;;;;6.64;100.00;100110.41;6216188;23;20000;-78
2023/10/25 01:41:15;;;;;;;13.88;6.40;;;;;;;6.75;100.00;100124.25;6216079;23;20379;-78
2023/10/25 01:43:42;;;;;;;13.80;6.13;;;;;;;6.38;100.00;100066.56;6216313;23;20354;-81
2023/10/25 01:46:07;;;;;;;10.13;5.78;;;;;;;6.72;100.00;100121.88;6216306;23;20059;-81
2023/10/25 01:48:33;;;;;;;10.85;6.03;;;;;;;6.71;100.00;100120.22;6216400;23;20009;-77
2023/10/25 01:50:58;;;;;;;10.57;5.95;;;;;;;6.59;100.00;100088.41;6216124;23;20036;-78
2023/10/25 01:53:23;;;;;;;10.38;5.90;;;;;;;6.70;100.00;100112.63;6216305;23;20041;-78
2023/10/25 01:55:50;;;;;;;13.05;5.82;;;;;;;6.62;100.00;100089.97;6216270;23;20427;-77
2023/10/25 01:58:16;;;;;;;12.85;5.88;;;;;;;6.74;100.00;100103.81;6189181;23;20363;-78
2023/10/25 02:00:41;;;;;;;13.23;6.00;;;;;;;6.54;100.00;100069.06;6214580;23;20079;-81
2023/10/25 02:03:07;;;;;;;10.23;6.03;;;;;;;6.72;100.00;100097.97;6216477;23;20031;-79
2023/10/25 02:05:32;;;;;;;11.55;6.20;;;;;;;6.67;100.00;100092.25;6216420;23;20001;-79
2023/10/25 02:07:57;;;;;;;11.27;5.38;;;;;;;6.66;100.00;100093.19;6216316;23;20370;-79
2023/10/25 02:10:22;;;;;;;10.65;5.97;;;;;;;6.66;100.00;100085.47;6216222;23;20067;-77
2023/10/25 02:12:48;;;;;;;9.30;5.88;;;;;;;6.63;100.00;100088.22;6215912;23;20478;-81
2023/10/25 02:15:13;;;;;;;11.50;5.75;;;;;;;6.65;100.00;100078.69;6189551;23;19997;-80
2023/10/25 02:17:38;;;;;;;13.57;5.95;;;;;;;6.68;100.00;100088.78;6216418;23;20050;-81
2023/10/25 02:20:04;;;;;;;11.23;6.03;;;;;;;6.67;100.00;100082.81;6216569;23;20020;-79
2023/10/25 02:22:29;;;;;;;13.75;6.07;;;;;;;6.57;100.00;100064.56;6215836;23;20312;-79
2023/10/25 02:24:55;;;;;;;18.88;7.20;;;;;;;6.63;100.00;100062.56;6215653;23;20005;-79
2023/10/25 02:27:20;;;;;;;15.40;6.60;;;;;;;6.80;100.00;100082.94;6215370;23;19996;-80
2023/10/25 02:29:46;;;;;;;12.30;6.93;;;;;;;6.82;100.00;100078.53;6215739;23;20063;-79
2023/10/25 02:32:11;;;;;;;10.70;6.63;;;;;;;6.82;100.00;100083.66;6216193;23;20079;-78
2023/10/25 02:34:36;;;;;;;13.73;6.55;;;;;;;6.81;100.00;100075.16;6216100;23;20015;-78
2023/10/25 02:37:02;;;;;;;9.65;6.25;;;;;;;6.71;100.00;100050.94;6216080;23;20012;-79
2023/10/25 02:39:28;;;;;;;13.05;6.15;;;;;;;6.79;100.00;100060.75;6214283;23;20430;-80
2023/10/25 02:41:53;;;;;;;11.38;6.05;;;;;;;6.79;100.00;100069.28;6215436;23;20012;-79
2023/10/25 02:44:20;;;;;;;15.93;6.70;;;;;;;6.76;100.00;100066.06;6215936;23;20004;-79
2023/10/25 02:46:45;;;;;;;11.93;5.43;;;;;;;6.72;100.00;100059.47;6213697;23;20012;-81
2023/10/25 02:49:11;;;;;;;11.13;5.65;;;;;;;6.44;100.00;100007.22;6216059;23;20008;-80
2023/10/25 02:51:38;;;;;;;13.23;5.30;;;;;;;6.64;100.00;100034.25;6216148;23;20012;-79
2023/10/25 02:54:04;;;;;;;11.52;5.13;;;;;;;6.68;100.00;100037.47;6215709;23;20005;-78
2023/10/25 02:56:29;;;;;;;10.73;4.97;;;;;;;6.78;100.00;100036.00;6215668;23;20304;-81
2023/10/25 02:58:54;;;;;;;11.48;5.07;;;;;;;6.79;100.00;100041.06;6213447;23;20009;-78
2023/10/25 03:01:24;;;;;;;10.05;5.22;;;;;;;6.80;100.00;100041.88;6215664;23;20012;-80
2023/10/25 03:03:51;;;;;;;10.10;5.00;;;;;;;6.77;100.00;100036.91;6215775;23;20423;-78
2023/10/25 03:06:16;;;;;;;10.50;5.47;;;;;;;6.75;100.00;100038.75;6215646;23;20000;-79
2023/10/25 03:08:42;;;;;;;9.77;5.35;;;;;;;6.51;100.00;100002.56;6215118;23;20043;-80
2023/10/25 03:11:07;;;;;;;12.13;4.80;;;;;;;6.65;100.00;100023.09;6215486;23;20063;-78
2023/10/25 03:13:32;;;;;;;9.38;4.90;;;;;;;6.64;100.00;100028.31;6215310;23;20059;-81
2023/10/25 03:15:57;;;;;;;10.85;5.55;;;;;;;6.59;100.00;100019.16;6215514;23;20441;-79
2023/10/25 03:18:23;;;;;;;11.60;5.50;;;;;;;6.58;100.00;100022.63;6215471;23;20445;-80
2023/10/25 03:20:48;;;;;;;11.80;4.85;;;;;;;6.56;100.00;100013.38;6215466;23;20430;-78
2023/10/25 03:23:14;;;;;;;11.27;4.82;;;;;;;6.56;100.00;100014.19;6215336;23;20012;-77
2023/10/25 03:25:39;;;;;;;10.82;5.60;;;;;;;6.35;100.00;99984.69;6215380;23;20005;-80
2023/10/25 03:28:04;;;;;;;10.88;5.68;;;;;;;6.50;100.00;100006.88;6189064;23;20005;-80
2023/10/25 03:30:30;;;;;;;11.02;5.53;;;;;;;6.46;100.00;99997.69;6215026;23;20488;-79
2023/10/25 03:32:55;;;;;;;9.90;5.50;;;;;;;6.45;100.00;99985.78;6215019;23;20005;-79
2023/10/25 03:35:20;;;;;;;9.63;4.88;;;;;;;6.59;100.00;100005.50;6188818;23;20005;-77
2023/10/25 03:37:46;;;;;;;13.07;5.38;;;;;;;6.64;100.00;100002.66;6214685;23;20004;-80
2023/10/25 03:40:11;;;;;;;10.35;5.40;;;;;;;6.68;100.00;100001.53;6213281;23;20018;-79
2023/10/25 03:42:37;;;;;;;15.57;5.35;;;;;;;6.58;100.00;99975.63;6214875;23;20017;-78
2023/10/25 03:45:06;;;;;;;12.20;5.43;;;;;;;6.74;100.00;99996.06;6214920;23;20041;-78
2023/10/25 03:47:31;;;;;;;12.65;5.93;;;;;;;6.80;100.00;99990.56;6215129;23;20005;-76
2023/10/25 03:49:57;;;;;;;8.05;5.15;;;;;;;6.73;100.00;99981.59;6214039;23;20697;-78
2023/10/25 03:52:22;;;;;;;9.27;5.22;;;;;;;6.79;100.00;99976.91;6215203;23;20011;-78
2023/10/25 03:54:47;;;;;;;10.00;5.80;;;;;;;6.80;100.00;99965.72;6215190;23;20001;-78
2023/10/25 03:57:12;;;;;;;9.52;5.80;;;;;;;6.81;100.00;99958.84;6213066;23;20434;-77
2023/10/25 03:59:38;;;;;;;12.05;5.72;;;;;;;6.94;100.00;99974.31;6214869;23;20008;-79
2023/10/25 04:02:04;;;;;;;11.30;5.57;;;;;;;6.96;100.00;99975.84;6215141;23;19997;-80
2023/10/25 04:04:29;;;;;;;13.02;5.40;;;;;;;6.96;100.00;99975.84;6215396;23;20079;-77
2023/10/25 04:06:55;;;;;;;9.73;5.55;;;;;;;6.93;100.00;99965.78;6215160;23;20005;-77
2023/10/25 04:09:21;;;;;;;8.45;5.40;;;;;;;7.03;100.00;99977.13;6215202;23;20011;-78
2023/10/25 04:11:46;;;;;;;11.32;5.78;;;;;;;7.07;100.00;99980.31;6213015;23;20386;-79
2023/10/25 04:14:11;;;;;;;10.57;5.68;;;;;;;7.09;100.00;99974.19;6214743;23;20004;-79
2023/10/25 04:16:37;;;;;;;18.02;6.57;;;;;;;7.14;100.00;99966.19;6214877;23;20059;-78
2023/10/25 04:19:02;;;;;;;14.60;6.22;;;;;;;7.14;100.00;99973.91;6213205;23;20004;-77
2023/10/25 04:21:28;;;;;;;11.57;6.30;;;;;;;7.16;100.00;99970.31;6214956;23;20036;-78
2023/10/25 04:23:53;;;;;;;16.05;6.45;;;;;;;6.95;100.00;99929.75;6215061;23;20434;-77
2023/10/25 04:26:19;;;;;;;13.55;6.57;;;;;;;7.21;100.00;99971.78;6214880;23;20001;-78
2023/10/25 04:28:44;;;;;;;15.27;7.07;;;;;;;7.08;100.00;99940.91;6214865;23;20009;-78
2023/10/25 04:31:10;;;;;;;17.48;6.75;;;;;;;7.07;100.00;99941.81;6214474;23;20382;-78
2023/10/25 04:33:39;;;;;;;12.40;6.75;;;;;;;7.19;100.00;99954.72;6214810;23;20000;-78
2023/10/25 04:36:05;;;;;;;14.55;7.22;;;;;;;7.31;100.00;99970.28;6215171;23;20011;-77
2023/10/25 04:38:31;;;;;;;15.07;6.60;;;;;;;7.26;100.00;99957.72;6214861;23;20005;-78
2023/10/25 04:40:57;;;;;;;13.73;6.18;;;;;;;7.16;100.00;99944.63;6214874;23;20438;-77
2023/10/25 04:43:23;;;;;;;12.30;6.80;;;;;;;7.31;100.00;99960.84;6214418;23;20035;-76
2023/10/25 04:45:48;;;;;;;13.18;6.13;;;;;;;7.26;100.00;99952.59;6212397;23;20023;-77
2023/10/25 04:48:14;;;;;;;16.10;7.28;;;;;;;7.32;100.00;99957.34;6214814;23;20004;-77
2023/10/25 04:50:39;;;;;;;11.82;5.97;;;;;;;7.35;100.00;99957.13;6216781;23;20059;-79
2023/10/25 04:53:05;;;;;;;13.68;6.15;;;;;;;7.32;100.00;99941.94;6214536;23;20011;-76
2023/10/25 04:55:34;;;;;;;16.20;6.20;;;;;;;7.36;100.00;99938.25;6217006;23;20485;-78
2023/10/25 05:00:34;;;;;;;14.65;6.25;;;;;;;6.37;100.00;99776.91;6218372;22;20513;-80
2023/10/25 05:03:12;;;;;;;12.25;6.20;;;;;;;6.94;100.00;99858.81;6190351;23;20005;-80
2023/10/25 05:08:47;;;;;;;9.02;5.60;;;;;;;7.44;100.00;99930.03;6221449;22;20386;-77
2023/10/25 05:11:15;;;;;;;11.93;6.03;;;;;;;7.41;100.00;99914.84;6246914;23;20048;-80
2023/10/25 05:13:41;;;;;;;11.77;7.10;;;;;;;7.01;100.00;99842.13;6220556;23;20316;-79
2023/10/25 05:16:07;;;;;;;11.73;6.05;;;;;;;7.32;100.00;99893.13;6219781;23;19996;-78
2023/10/25 05:18:51;;;;;;;12.52;5.70;;;;;;;7.45;100.00;99906.81;6246568;23;20004;-77
2023/10/25 05:24:19;;;;;;;12.63;8.50;;;;;;;6.62;100.00;99769.31;6247256;23;20019;-77
2023/10/25 05:26:44;;;;;;;13.63;8.35;;;;;;;6.83;100.00;99791.03;6218904;23;20009;-78
2023/10/25 05:29:15;;;;;;;13.70;8.80;;;;;;;7.12;100.00;99829.41;6219822;23;20334;-80
2023/10/25 05:32:03;;;;;;;12.70;8.85;;;;;;;7.47;100.00;99891.31;6219310;23;20020;-78
2023/10/25 05:34:29;;;;;;;15.00;8.68;;;;;;;7.22;100.00;99847.63;6246661;23;20057;-79
2023/10/25 05:36:55;;;;;;;13.15;8.20;;;;;;;7.43;100.00;99874.47;6233615;22;20024;-77
2023/10/25 05:39:21;;;;;;;10.93;8.20;;;;;;;6.73;100.00;99759.19;6216462;23;20044;-78
2023/10/25 05:41:50;;;;;;;13.50;9.07;;;;;;;7.43;100.00;99871.91;6189730;23;20032;-77
2023/10/25 05:44:15;;;;;;;13.48;9.27;;;;;;;7.42;100.00;99867.69;6214598;23;20481;-78
2023/10/25 05:46:42;;;;;;;11.00;8.40;;;;;;;7.21;100.00;99835.69;6216224;23;20008;-76
2023/10/25 05:49:08;;;;;;;13.73;8.88;;;;;;;7.27;100.00;99840.41;6216738;23;20008;-76
2023/10/25 05:51:34;;;;;;;14.80;8.43;;;;;;;7.50;100.00;99872.31;6216377;23;20011;-79
2023/10/25 05:54:00;;;;;;;11.43;8.70;;;;;;;7.50;100.00;99872.31;6216326;23;20008;-78
2023/10/25 05:56:26;;;;;;;16.13;8.68;;;;;;;7.50;100.00;99869.75;6216093;23;20011;-78
2023/10/25 05:58:55;;;;;;;10.15;7.75;;;;;;;7.23;100.00;99821.00;6188376;23;20461;-80
2023/10/25 06:01:32;;;;;;;11.27;8.60;;;;;;;7.39;100.00;99842.22;6215475;23;20008;-82
2023/10/25 06:03:59;;;;;;;12.82;8.07;;;;;;;7.54;100.00;99863.50;6214836;23;20008;-82
2023/10/25 06:06:37;;;;;;;11.15;7.43;;;;;;;7.54;100.00;99855.78;6216803;23;20025;-81
2023/10/25 06:09:03;;;;;;;13.85;7.35;;;;;;;7.57;100.00;99858.13;6216342;23;20410;-82
2023/10/25 06:11:29;;;;;;;14.15;7.65;;;;;;;7.52;100.00;99847.34;6215765;23;20031;-82
2023/10/25 06:13:54;;;;;;;13.60;7.38;;;;;;;7.58;100.00;99858.06;6215812;23;20001;-84
2023/10/25 06:16:20;;;;;;;12.20;8.20;;;;;;;7.36;100.00;99811.56;6215585;23;20154;-85
2023/10/25 06:18:45;;;;;;;12.57;8.35;;;;;;;7.33;100.00;99816.91;6215972;23;20011;-86
2023/10/25 06:21:10;;;;;;;12.60;8.13;;;;;;;7.60;100.00;99856.22;6216133;23;20088;-81
2023/10/25 06:23:36;;;;;;;11.07;7.55;;;;;;;6.65;100.00;99697.28;6216872;22;20404;-86
2023/10/25 06:26:03;;;;;;;11.85;6.60;;;;;;;7.62;100.00;99854.34;6215957;23;20070;-84
2023/10/25 06:31:35;;;;;;;10.30;6.05;;;;;;;7.26;100.00;99782.28;6214724;22;20028;-84
2023/10/25 06:34:15;;;;;;;11.88;6.28;;;;;;;7.30;100.00;99781.19;6208595;23;20012;-87
2023/10/25 06:36:43;;;;;;;11.38;6.03;;;;;;;6.78;100.00;99689.59;6215744;23;20001;-87
2023/10/25 06:39:25;;;;;;;8.05;6.28;;;;;;;7.02;100.00;99720.56;6215723;22;20027;-87
2023/10/25 06:42:06;;;;;;;9.80;5.50;;;;;;;7.19;100.00;99733.91;6218110;23;20028;-84
2023/10/25 06:44:37;;;;;;;9.52;6.07;;;;;;;6.98;100.00;99696.84;6216764;23;20011;-85
2023/10/25 06:47:05;;;;;;;9.93;6.50;;;;;;;6.98;100.00;99680.59;6215909;23;20327;-88
2023/10/25 06:49:43;;;;;;;10.30;6.40;;;;;;;7.17;100.00;99697.22;6215577;23;20573;-88
2023/10/25 06:52:12;;;;;;;11.73;6.70;;;;;;;7.91;100.00;99807.88;6215717;23;20016;-86
2023/10/25 06:54:47;;;;;;;8.98;5.32;;;;;;;7.93;100.00;99804.28;6215919;23;20430;-86
2023/10/25 06:57:16;;;;;;;12.13;5.32;;;;;;;7.98;100.00;99802.22;6216078;23;20005;-85
2023/10/25 06:59:41;;;;;;;16.50;5.38;;;;;;;7.98;100.00;99797.09;6214818;23;20040;-84
2023/10/25 07:02:25;;;;;;;8.93;4.93;;;;;;;8.02;100.00;99801.09;6216410;23;20008;-74
2023/10/25 07:05:00;;;;;;;8.27;5.00;;;;;;;8.03;100.00;99787.28;6215475;23;20335;-78
2023/10/25 07:07:30;;;;;;;8.45;4.70;;;;;;;8.11;100.00;99784.19;6215684;23;20004;-77
2023/10/25 07:09:55;;;;;;;9.02;4.57;;;;;;;8.11;100.00;99784.19;6215832;23;20008;-82
2023/10/25 07:12:21;;;;;;;8.60;4.57;;;;;;;8.08;100.00;99763.03;6215823;23;20005;-84
2023/10/25 07:14:46;;;;;;;8.30;4.50;;;;;;;8.03;100.00;99756.44;6214739;23;20004;-79
2023/10/25 07:17:11;;;;;;;7.95;4.60;;;;;;;8.18;100.00;99772.56;6215752;23;20097;-83
2023/10/25 07:19:38;;;;;;;9.30;4.43;;;;;;;8.21;100.00;99772.34;6212708;23;20007;-81
2023/10/25 07:22:03;;;;;;;8.43;3.85;;;;;;;8.24;100.00;99768.72;6215102;23;20011;-85
2023/10/25 07:24:29;;;;;;;9.07;4.22;;;;;;;8.25;100.00;99752.38;6215589;23;20000;-85
2023/10/25 07:26:54;;;;;;;8.95;4.07;;;;;;;8.30;100.00;99761.41;6215492;23;20004;-84
2023/10/25 07:29:19;;;;;;;8.35;4.03;;;;;;;8.34;100.00;99755.16;6215546;23;20032;-83
2023/10/25 07:31:48;;;;;;;10.00;3.70;;;;;;;8.29;100.00;99734.06;6215033;23;20015;-78
2023/10/25 07:34:13;;;;;;;9.00;4.20;;;;;;;8.27;100.00;99722.25;6213613;23;20008;-85
2023/10/25 07:36:39;;;;;;;9.23;4.38;;;;;;;8.37;100.00;99730.16;6215202;23;20000;-86
2023/10/25 07:39:04;;;;;;;9.60;4.03;;;;;;;8.48;100.00;99745.66;6214893;23;20000;-85
2023/10/25 07:41:29;;;;;;;6.78;3.80;;;;;;;8.15;100.00;99699.94;6215433;23;20009;-87
2023/10/25 07:43:55;;;;;;;8.32;4.10;;;;;;;8.51;100.00;99751.38;6215444;23;20088;-86
2023/10/25 07:46:20;;;;;;;8.52;4.60;;;;;;;8.54;100.00;99747.75;6215495;23;20092;-86
2023/10/25 07:48:47;;;;;;;12.43;4.85;;;;;;;8.52;100.00;99744.47;6215149;23;20354;-87
2023/10/25 07:51:13;;;;;;;6.57;3.88;;;;;;;8.54;100.00;99743.44;6213378;23;20545;-86
2023/10/25 07:53:38;;;;;;;6.30;3.72;;;;;;;8.41;100.00;99711.00;6188230;23;20005;-87
2023/10/25 07:56:04;;;;;;;9.23;4.70;;;;;;;8.47;100.00;99723.41;6215967;23;20008;-78
2023/10/25 07:58:29;;;;;;;8.73;4.28;;;;;;;8.25;100.00;99665.75;6215282;23;20011;-88
2023/10/25 08:00:54;;;;;;;9.60;4.97;;;;;;;8.52;100.00;99703.31;6214955;23;20331;-82
2023/10/25 08:03:19;;;;;;;10.68;4.50;;;;;;;8.66;100.00;99715.19;6214437;23;20311;-86
2023/10/25 08:05:45;;;;;;;8.32;4.15;;;;;;;8.76;100.00;99719.56;6214685;23;20435;-90
2023/10/25 08:08:10;;;;;;;8.00;3.65;;;;;;;8.85;100.00;99711.16;6217853;23;20076;-86
2023/10/25 08:10:36;;;;;;;8.43;4.30;;;;;;;8.93;100.00;99709.75;6215605;23;20096;-86
2023/10/25 08:13:01;;;;;;;7.00;3.58;;;;;;;8.98;100.00;99705.09;6215652;23;20008;-88
2023/10/25 08:15:27;;;;;;;10.75;4.20;;;;;;;9.02;100.00;99691.06;6214953;23;20493;-83
2023/10/25 08:17:53;;;;;;;7.78;3.78;;;;;;;9.06;100.00;99697.63;6214552;23;20111;-82
2023/10/25 08:20:18;;;;;;;9.48;3.80;;;;;;;9.06;100.00;99690.72;6215204;23;20084;-83
2023/10/25 08:22:44;;;;;;;7.03;4.00;;;;;;;9.08;100.00;99686.28;6214950;23;20005;-84
2023/10/25 08:25:09;;;;;;;6.95;3.25;;;;;;;9.09;100.00;99687.91;6215021;23;20304;-88
2023/10/25 08:27:35;;;;;;;8.23;3.90;;;;;;;9.13;100.00;99683.34;6214564;23;20001;-88
2023/10/25 08:30:01;;;;;;;8.75;3.50;;;;;;;9.15;100.00;99684.06;6214843;23;20015;-87
2023/10/25 08:32:26;;;;;;;8.13;3.70;;;;;;;9.07;100.00;99660.66;6214706;23;20008;-84
2023/10/25 08:34:51;;;;;;;6.32;3.20;;;;;;;9.04;100.00;99656.53;6214713;23;20032;-83
2023/10/25 08:37:17;;;;;;;7.57;3.78;;;;;;;9.24;100.00;99677.38;6214528;23;20449;-79
2023/10/25 08:39:42;;;;;;;8.43;3.72;;;;;;;9.27;100.00;99672.84;6214678;23;20016;-83
2023/10/25 08:42:14;;;;;;;7.97;3.85;;;;;;;9.28;100.00;99664.16;6214893;23;20000;-83
2023/10/25 08:44:41;;;;;;;8.43;3.10;;;;;;;9.36;100.00;99666.16;6212100;23;20028;-85
2023/10/25 08:47:09;;;;;;;7.25;3.55;;;;;;;9.41;100.00;99667.44;6214965;23;20004;-81
2023/10/25 08:49:36;;;;;;;6.05;3.45;;;;;;;9.45;100.00;99661.13;6214487;23;20000;-85
2023/10/25 08:52:02;;;;;;;8.52;3.20;;;;;;;9.46;100.00;99655.03;6215012;23;20060;-85
2023/10/25 08:54:29;;;;;;;5.13;3.10;;;;;;;9.45;100.00;99650.81;6215239;23;20012;-83
2023/10/25 08:56:54;;;;;;;6.97;3.53;;;;;;;9.46;100.00;99642.16;6215287;23;20057;-83
2023/10/25 08:59:19;;;;;;;7.05;3.50;;;;;;;9.45;100.00;99643.09;6214679;23;20372;-84
2023/10/25 09:01:45;;;;;;;6.63;3.53;;;;;;;9.38;100.00;99626.47;6214626;23;20497;-84
2023/10/25 09:04:10;;;;;;;8.57;3.83;;;;;;;9.43;100.00;99637.22;6214529;23;20001;-80
2023/10/25 09:06:38;;;;;;;9.77;4.65;;;;;;;9.48;100.00;99642.03;6214840;23;20423;-85
2023/10/25 09:09:06;;;;;;;6.85;4.25;;;;;;;9.26;100.00;99596.50;6214670;23;20032;-86
2023/10/25 09:11:58;;;;;;;7.75;4.55;;;;;;;9.35;100.00;99613.00;6214562;23;20004;-85
2023/10/25 09:14:23;;;;;;;8.50;4.70;;;;;;;9.41;100.00;99630.53;6210068;23;20009;-81
2023/10/25 09:16:49;;;;;;;8.68;4.68;;;;;;;9.40;100.00;99623.75;6214643;23;20008;-82
2023/10/25 09:19:23;;;;;;;6.78;5.07;;;;;;;9.39;100.00;99625.50;6214446;23;20312;-82
2023/10/25 09:21:48;;;;;;;7.70;5.55;;;;;;;9.16;100.00;99591.22;6214439;23;20005;-79
2023/10/25 09:24:13;;;;;;;16.73;6.20;;;;;;;9.10;100.00;99578.00;6214394;23;20051;-79
2023/10/25 09:26:39;;;;;;;9.65;5.65;;;;;;;9.25;100.00;99605.16;6214973;23;20000;-85
2023/10/25 09:29:06;;;;;;;12.82;6.05;;;;;;;8.99;100.00;99563.38;6214270;23;20009;-86
2023/10/25 09:31:31;;;;;;;10.30;6.32;;;;;;;9.11;100.00;99589.94;6214450;23;20435;-83
2023/10/25 09:33:58;;;;;;;8.88;6.03;;;;;;;9.12;100.00;99594.13;6214265;23;20079;-84
2023/10/25 09:36:24;;;;;;;8.80;6.10;;;;;;;9.12;100.00;99589.81;6215316;23;20384;-85
2023/10/25 09:38:51;;;;;;;9.85;6.45;;;;;;;9.04;100.00;99581.03;6215975;23;20000;-84
2023/10/25 09:41:17;;;;;;;9.15;6.28;;;;;;;9.02;100.00;99585.47;6215952;23;20449;-85
2023/10/25 09:43:56;;;;;;;10.63;6.57;;;;;;;9.15;100.00;99602.47;6216153;23;20007;-85
2023/10/25 09:46:23;;;;;;;8.80;6.32;;;;;;;9.11;100.00;99598.47;6216062;23;20008;-78
2023/10/25 09:49:06;;;;;;;10.60;6.28;;;;;;;9.10;100.00;99576.22;6216323;23;20079;-85
2023/10/25 09:51:47;;;;;;;11.38;6.70;;;;;;;9.19;100.00;99575.53;6216327;23;20004;-85
2023/10/25 09:54:13;;;;;;;9.25;6.57;;;;;;;9.18;100.00;99573.91;6216400;23;20004;-86
2023/10/25 09:56:42;;;;;;;11.25;6.80;;;;;;;9.05;100.00;99556.94;6214035;23;20010;-82
2023/10/25 09:59:10;;;;;;;10.63;6.97;;;;;;;9.04;100.00;99557.84;6216811;23;20486;-84
2023/10/25 10:01:38;;;;;;;11.00;7.07;;;;;;;8.96;100.00;99553.31;6216510;23;20001;-84
2023/10/25 10:04:26;;;;;;;11.98;7.40;;;;;;;8.93;100.00;99552.72;6216141;23;20012;-80
2023/10/25 10:07:19;;;;;;;10.45;7.00;;;;;;;8.89;100.00;99547.81;6214343;23;20087;-81
2023/10/25 10:09:54;;;;;;;11.52;7.72;;;;;;;8.68;100.00;99513.41;6213996;23;20018;-85
2023/10/25 10:12:20;;;;;;;13.85;7.55;;;;;;;8.72;100.00;99521.69;6216944;23;20011;-86
2023/10/25 10:14:45;;;;;;;12.70;8.57;;;;;;;8.59;100.00;99514.91;6216972;22;20016;-83
2023/10/25 10:17:19;;;;;;;10.68;7.95;;;;;;;8.73;100.00;99547.31;6215931;23;20001;-83
2023/10/25 10:19:50;;;;;;;10.77;8.02;;;;;;;8.73;100.00;99531.06;6216425;23;20001;-81
2023/10/25 10:22:19;;;;;;;10.77;8.10;;;;;;;8.27;100.00;99447.06;6216885;23;20027;-83
2023/10/25 10:24:49;;;;;;;12.57;8.70;;;;;;;8.66;100.00;99512.72;6189373;23;20346;-84
2023/10/25 10:27:19;;;;;;;12.38;8.70;;;;;;;8.47;100.00;99471.31;6216156;23;20481;-82
2023/10/25 10:29:48;;;;;;;11.13;8.48;;;;;;;8.59;100.00;99489.19;6215829;23;20001;-82
2023/10/25 10:32:15;;;;;;;14.05;8.63;;;;;;;8.61;100.00;99479.59;6216001;23;20005;-87
2023/10/25 10:34:47;;;;;;;21.17;9.68;;;;;;;8.74;100.00;99486.38;6216131;23;20059;-86
2023/10/25 10:37:21;;;;;;;12.88;8.77;;;;;;;8.76;100.00;99482.75;6215352;23;20009;-79
2023/10/25 10:39:56;;;;;;;11.45;8.32;;;;;;;8.76;100.00;99476.78;6215901;23;20323;-86
2023/10/25 10:42:30;;;;;;;14.48;9.38;;;;;;;8.76;100.00;99476.78;6215787;23;20299;-86
2023/10/25 10:44:57;;;;;;;14.52;8.75;;;;;;;8.63;100.00;99451.97;6215330;23;20004;-85
2023/10/25 10:47:28;;;;;;;12.48;8.40;;;;;;;8.67;100.00;99460.31;6215550;23;20019;-85
2023/10/25 10:49:59;;;;;;;13.48;8.98;;;;;;;8.68;100.00;99456.78;6215637;23;20015;-85
2023/10/25 10:52:24;;;;;;;13.05;8.93;;;;;;;8.70;100.00;99454.91;6212969;23;20012;-86
2023/10/25 10:54:49;;;;;;;14.23;9.45;;;;;;;8.73;100.00;99446.13;6215594;23;20380;-77
2023/10/25 10:57:16;;;;;;;15.90;9.55;;;;;;;8.65;100.00;99425.31;6217520;23;20027;-90
2023/10/25 10:59:45;;;;;;;14.02;9.07;;;;;;;8.80;100.00;99442.97;6218866;23;20300;-84
2023/10/25 11:02:12;;;;;;;18.08;9.52;;;;;;;8.68;100.00;99413.03;6218482;23;20056;-85
2023/10/25 11:04:44;;;;;;;16.13;9.38;;;;;;;8.78;100.00;99437.13;6226164;23;20012;-85
2023/10/25 11:07:09;;;;;;;15.23;8.77;;;;;;;8.77;100.00;99429.53;6219526;23;20005;-87
2023/10/25 11:09:34;;;;;;;12.30;8.80;;;;;;;8.70;100.00;99407.78;6214102;23;20335;-81
2023/10/25 11:12:18;;;;;;;12.82;9.10;;;;;;;8.81;100.00;99418.03;6216591;23;20001;-81
2023/10/25 11:14:45;;;;;;;13.23;9.30;;;;;;;8.68;100.00;99386.50;6214973;23;20013;-83
2023/10/25 11:17:10;;;;;;;14.02;8.88;;;;;;;8.69;100.00;99382.97;6215272;23;20059;-87
2023/10/25 11:19:36;;;;;;;14.70;9.93;;;;;;;8.84;100.00;99384.34;6214958;23;20012;-84
2023/10/25 11:22:02;;;;;;;14.35;9.55;;;;;;;8.83;100.00;99398.16;6188627;23;20033;-93
2023/10/25 11:24:27;;;;;;;18.13;9.48;;;;;;;8.31;100.00;99300.09;6215123;23;20008;-89
2023/10/25 11:26:53;;;;;;;13.68;9.38;;;;;;;8.75;100.00;99369.59;6214680;23;20004;-87
2023/10/25 11:29:20;;;;;;;13.38;9.50;;;;;;;8.80;100.00;99360.59;6216310;23;20010;-86
2023/10/25 11:31:48;;;;;;;12.68;9.38;;;;;;;8.94;100.00;99377.53;6214956;23;20497;-85
2023/10/25 11:34:20;;;;;;;13.52;9.07;;;;;;;8.83;100.00;99352.63;6215191;23;20028;-84
2023/10/25 11:36:49;;;;;;;16.27;10.13;;;;;;;9.03;100.00;99376.78;6215073;23;20001;-85